Time;durP1;ratioP1;P1;durP2;ratioP2;P2;SDS_P1;SDS_P2;PMS_P1;PMS_P2;Temp;Humidity;BMP_temperature;BMP_pressure;BME280_temperature;BME280_humidity;BME280_pressure;Samples;Min_cycle;Max_cycle;Signal;HPM_P1;HPM_P2
2022/04/06 00:01:00;;;;;;;6.63;2.90;;;;;;;;;;5081621;28;20131;-71
2022/04/06 00:03:36;;;;;;;3.85;2.10;;;;;;;;;;5086054;28;20047;-71
2022/04/06 00:06:08;;;;;;;4.05;2.17;;;;;;;;;;5085698;28;20043;-71
2022/04/06 00:08:36;;;;;;;3.65;1.90;;;;;;;;;;5084946;28;20094;-71
2022/04/06 00:11:09;;;;;;;4.22;2.45;;;;;;;;;;5083167;28;20047;-71
2022/04/06 00:13:37;;;;;;;3.40;2.00;;;;;;;;;;5077350;28;20052;-71
2022/04/06 00:16:08;;;;;;;3.33;2.10;;;;;;;;;;5079676;28;20050;-71
2022/04/06 00:18:36;;;;;;;4.28;2.08;;;;;;;;;;5088100;28;20065;-71
2022/04/06 00:21:07;;;;;;;5.70;2.35;;;;;;;;;;5087260;28;20130;-71
2022/04/06 00:23:36;;;;;;;2.67;1.95;;;;;;;;;;5077166;28;20130;-71
2022/04/06 00:26:09;;;;;;;4.40;2.17;;;;;;;;;;5076331;28;20067;-71
2022/04/06 00:28:38;;;;;;;3.80;2.10;;;;;;;;;;5087547;28;20123;-71
2022/04/06 00:31:06;;;;;;;4.00;2.17;;;;;;;;;;5087754;28;20036;-71
2022/04/06 00:33:34;;;;;;;3.72;1.95;;;;;;;;;;5086099;28;20044;-71
2022/04/06 00:36:05;;;;;;;4.78;2.03;;;;;;;;;;5074649;28;20131;-71
2022/04/06 00:38:33;;;;;;;5.40;2.28;;;;;;;;;;5087019;28;20487;-71
2022/04/06 00:41:01;;;;;;;4.85;2.10;;;;;;;;;;5079333;28;20138;-71
2022/04/06 00:43:33;;;;;;;6.30;1.92;;;;;;;;;;5084437;28;20055;-71
2022/04/06 00:46:04;;;;;;;4.75;2.03;;;;;;;;;;5083867;28;20099;-71
2022/04/06 00:48:32;;;;;;;3.90;2.10;;;;;;;;;;5086326;28;20052;-71
2022/04/06 00:51:01;;;;;;;4.50;2.28;;;;;;;;;;5086158;28;20093;-70
2022/04/06 00:53:31;;;;;;;4.05;2.17;;;;;;;;;;5085211;28;20044;-71
2022/04/06 00:56:00;;;;;;;3.92;2.38;;;;;;;;;;5085487;28;20127;-71
2022/04/06 00:58:28;;;;;;;4.20;2.28;;;;;;;;;;5074075;28;20050;-71
2022/04/06 01:00:57;;;;;;;4.00;2.17;;;;;;;;;;5077486;28;20135;-71
2022/04/06 01:03:26;;;;;;;4.80;2.15;;;;;;;;;;5084413;28;20055;-71
2022/04/06 01:05:55;;;;;;;3.72;2.20;;;;;;;;;;5085596;28;20051;-71
2022/04/06 01:08:24;;;;;;;3.58;2.33;;;;;;;;;;5087593;28;20068;-71
2022/04/06 01:10:53;;;;;;;3.67;2.58;;;;;;;;;;5084978;28;20048;-71
2022/04/06 01:13:21;;;;;;;4.65;2.03;;;;;;;;;;5085508;28;20657;-71
2022/04/06 01:15:50;;;;;;;4.72;2.55;;;;;;;;;;5082180;28;20048;-71
2022/04/06 01:18:20;;;;;;;5.53;2.83;;;;;;;;;;5085267;28;20079;-71
2022/04/06 01:20:48;;;;;;;4.72;2.38;;;;;;;;;;5083713;28;20067;-71
2022/04/06 01:23:18;;;;;;;3.65;2.20;;;;;;;;;;5081642;28;20616;-71
2022/04/06 01:25:51;;;;;;;3.60;2.20;;;;;;;;;;5086712;28;20083;-71
2022/04/06 01:28:19;;;;;;;4.50;2.40;;;;;;;;;;5085567;28;20130;-71
2022/04/06 01:30:47;;;;;;;5.20;2.47;;;;;;;;;;5088397;28;20601;-71
2022/04/06 01:33:16;;;;;;;4.82;2.47;;;;;;;;;;5090951;28;20531;-71
2022/04/06 01:35:44;;;;;;;8.18;2.45;;;;;;;;;;5078023;28;20076;-71
2022/04/06 01:38:12;;;;;;;5.55;2.70;;;;;;;;;;5090910;28;20087;-71
2022/04/06 01:40:42;;;;;;;4.45;2.60;;;;;;;;;;5086874;28;20134;-71
2022/04/06 01:43:12;;;;;;;4.88;2.42;;;;;;;;;;5081036;28;20048;-70
2022/04/06 01:45:41;;;;;;;5.63;2.97;;;;;;;;;;5088046;28;20058;-71
2022/04/06 01:48:09;;;;;;;6.65;2.63;;;;;;;;;;5088413;28;20056;-71
2022/04/06 01:53:23;;;;;;;8.93;3.45;;;;;;;;;;5083608;28;20084;-71
2022/04/06 01:55:53;;;;;;;5.22;2.95;;;;;;;;;;5086725;28;20044;-71
2022/04/06 01:58:22;;;;;;;6.07;2.55;;;;;;;;;;5075493;28;20174;-71
2022/04/06 02:00:51;;;;;;;5.97;2.75;;;;;;;;;;5091628;28;20110;-71
2022/04/06 02:03:20;;;;;;;6.18;3.00;;;;;;;;;;5078929;28;20078;-71
2022/04/06 02:05:49;;;;;;;6.20;2.80;;;;;;;;;;5087474;28;20044;-71
2022/04/06 02:08:17;;;;;;;4.97;3.03;;;;;;;;;;5087096;28;20090;-71
2022/04/06 02:10:45;;;;;;;7.88;2.80;;;;;;;;;;5089603;28;20083;-71
2022/04/06 02:13:15;;;;;;;5.03;2.80;;;;;;;;;;5084317;28;20186;-71
2022/04/06 02:15:43;;;;;;;7.15;3.20;;;;;;;;;;5088461;28;20054;-71
2022/04/06 02:18:11;;;;;;;7.55;2.83;;;;;;;;;;5084810;28;20110;-71
2022/04/06 02:20:40;;;;;;;5.05;2.90;;;;;;;;;;5086936;28;20414;-71
2022/04/06 02:23:10;;;;;;;5.80;3.13;;;;;;;;;;5088289;28;20040;-71
2022/04/06 02:25:38;;;;;;;9.38;3.30;;;;;;;;;;5088776;28;20048;-71
2022/04/06 02:28:06;;;;;;;6.22;3.42;;;;;;;;;;5078273;28;20047;-71
2022/04/06 02:30:36;;;;;;;5.15;2.83;;;;;;;;;;5084166;28;20091;-71
2022/04/06 02:33:04;;;;;;;7.97;3.13;;;;;;;;;;5088472;28;20567;-71
2022/04/06 02:35:33;;;;;;;6.18;3.53;;;;;;;;;;5089724;28;20071;-71
2022/04/06 02:38:01;;;;;;;5.88;3.33;;;;;;;;;;5088234;28;20078;-71
2022/04/06 02:40:32;;;;;;;9.68;3.53;;;;;;;;;;5085715;28;20117;-71
2022/04/06 02:43:00;;;;;;;5.85;3.67;;;;;;;;;;5075893;28;20055;-71
2022/04/06 02:45:29;;;;;;;7.45;3.35;;;;;;;;;;5083508;28;20106;-71
2022/04/06 02:47:58;;;;;;;8.93;3.58;;;;;;;;;;5090177;28;20062;-71
2022/04/06 02:50:27;;;;;;;7.45;3.33;;;;;;;;;;5088681;28;20512;-71
2022/04/06 02:52:55;;;;;;;7.78;3.92;;;;;;;;;;5083180;28;20059;-70
2022/04/06 02:55:23;;;;;;;6.85;3.85;;;;;;;;;;5084884;28;20091;-71
2022/04/06 02:57:52;;;;;;;11.48;4.15;;;;;;;;;;5079664;28;20072;-71
2022/04/06 03:00:20;;;;;;;7.20;3.67;;;;;;;;;;5085090;28;20052;-70
2022/04/06 03:02:50;;;;;;;7.32;3.83;;;;;;;;;;5083984;28;20083;-71
2022/04/06 03:05:19;;;;;;;6.88;3.30;;;;;;;;;;5090005;28;20467;-71
2022/04/06 03:07:48;;;;;;;6.70;3.47;;;;;;;;;;5088431;28;20083;-71
2022/04/06 03:10:16;;;;;;;5.93;3.08;;;;;;;;;;5089611;28;20097;-71
2022/04/06 03:12:45;;;;;;;6.55;3.30;;;;;;;;;;5084771;28;20492;-71
2022/04/06 03:15:14;;;;;;;8.48;3.30;;;;;;;;;;5076497;28;20083;-71
2022/04/06 03:17:43;;;;;;;7.65;3.70;;;;;;;;;;5089815;28;20044;-71
2022/04/06 03:20:13;;;;;;;6.05;3.35;;;;;;;;;;5083894;28;20460;-71
2022/04/06 03:22:43;;;;;;;5.40;3.00;;;;;;;;;;5077941;28;20586;-71
2022/04/06 03:25:12;;;;;;;6.07;2.78;;;;;;;;;;5084431;28;20501;-71
2022/04/06 03:27:40;;;;;;;7.07;3.08;;;;;;;;;;5075680;28;20121;-71
2022/04/06 03:30:11;;;;;;;4.90;2.97;;;;;;;;;;5082316;28;20762;-71
2022/04/06 03:32:39;;;;;;;5.85;3.15;;;;;;;;;;5086405;28;20043;-71
2022/04/06 03:35:08;;;;;;;7.15;3.30;;;;;;;;;;5086466;28;20476;-71
2022/04/06 03:37:37;;;;;;;7.82;3.35;;;;;;;;;;5080929;28;20156;-71
2022/04/06 03:40:07;;;;;;;4.80;2.55;;;;;;;;;;5087357;28;20084;-71
2022/04/06 03:42:36;;;;;;;5.60;2.72;;;;;;;;;;5088327;28;20100;-71
2022/04/06 03:45:05;;;;;;;10.50;2.97;;;;;;;;;;5086915;28;20036;-71
2022/04/06 03:47:34;;;;;;;4.10;2.33;;;;;;;;;;5085884;28;20048;-71
2022/04/06 03:50:02;;;;;;;4.47;2.67;;;;;;;;;;5085702;28;20064;-71
2022/04/06 03:52:31;;;;;;;7.25;2.58;;;;;;;;;;5075795;28;20101;-71
2022/04/06 03:54:59;;;;;;;5.80;2.80;;;;;;;;;;5083623;28;20101;-71
2022/04/06 03:57:29;;;;;;;5.32;2.58;;;;;;;;;;5084046;28;20079;-71
2022/04/06 03:59:57;;;;;;;5.07;2.53;;;;;;;;;;5087972;28;20134;-71
2022/04/06 04:02:25;;;;;;;3.85;2.45;;;;;;;;;;5082535;28;20139;-71
2022/04/06 04:04:54;;;;;;;4.90;2.63;;;;;;;;;;5088299;28;20047;-70
2022/04/06 04:07:22;;;;;;;5.28;2.70;;;;;;;;;;5081538;28;20491;-71
2022/04/06 04:09:51;;;;;;;5.30;2.65;;;;;;;;;;5074958;28;20154;-71
2022/04/06 04:12:19;;;;;;;6.20;3.03;;;;;;;;;;5086864;28;21101;-71
2022/04/06 04:14:49;;;;;;;4.63;2.55;;;;;;;;;;5081762;28;20587;-71
2022/04/06 04:17:17;;;;;;;4.32;2.33;;;;;;;;;;5086916;28;20384;-71
2022/04/06 04:19:46;;;;;;;4.30;2.65;;;;;;;;;;5088250;28;20133;-70
2022/04/06 04:22:14;;;;;;;5.93;2.75;;;;;;;;;;5092955;28;20048;-71
2022/04/06 04:24:42;;;;;;;5.70;2.55;;;;;;;;;;5083942;28;20124;-71
2022/04/06 04:27:11;;;;;;;5.85;2.58;;;;;;;;;;5083212;28;20052;-71
2022/04/06 04:29:39;;;;;;;7.28;2.50;;;;;;;;;;5082533;28;20748;-71
2022/04/06 04:32:10;;;;;;;4.38;2.22;;;;;;;;;;5081275;28;20051;-71
2022/04/06 04:34:38;;;;;;;3.72;2.33;;;;;;;;;;5085965;28;20097;-70
2022/04/06 04:37:07;;;;;;;6.57;3.08;;;;;;;;;;5087218;28;20084;-70
2022/04/06 04:39:35;;;;;;;5.65;2.70;;;;;;;;;;5082610;28;20081;-70
2022/04/06 04:42:04;;;;;;;5.50;2.60;;;;;;;;;;5061548;28;20131;-70
2022/04/06 04:44:32;;;;;;;8.63;2.78;;;;;;;;;;5065631;28;20048;-70
2022/04/06 04:47:01;;;;;;;6.45;3.00;;;;;;;;;;5052951;28;20441;-70
2022/04/06 04:49:30;;;;;;;6.68;3.03;;;;;;;;;;5051730;28;20144;-70
2022/04/06 04:51:59;;;;;;;4.10;2.42;;;;;;;;;;5058699;28;20071;-70
2022/04/06 04:54:27;;;;;;;5.10;2.65;;;;;;;;;;5065991;28;20106;-70
2022/04/06 04:56:57;;;;;;;5.53;2.60;;;;;;;;;;5066752;28;20060;-70
2022/04/06 04:59:26;;;;;;;7.10;2.53;;;;;;;;;;5060882;28;20048;-70
2022/04/06 05:01:54;;;;;;;3.85;2.10;;;;;;;;;;5070827;28;20051;-70
2022/04/06 05:04:23;;;;;;;4.53;2.30;;;;;;;;;;5066856;28;20056;-70
2022/04/06 05:06:53;;;;;;;3.50;1.90;;;;;;;;;;5069284;28;20127;-70
2022/04/06 05:09:21;;;;;;;3.63;2.42;;;;;;;;;;5067183;28;20045;-70
2022/04/06 05:11:49;;;;;;;3.67;2.03;;;;;;;;;;5060620;28;20569;-70
2022/04/06 05:14:18;;;;;;;6.22;2.33;;;;;;;;;;5066166;28;20140;-70
2022/04/06 05:16:46;;;;;;;4.70;2.17;;;;;;;;;;5061590;28;20139;-70
2022/04/06 05:19:14;;;;;;;5.05;2.13;;;;;;;;;;5059501;28;20134;-70
2022/04/06 05:21:43;;;;;;;4.20;2.05;;;;;;;;;;5060205;28;20082;-70
2022/04/06 05:24:12;;;;;;;3.13;2.20;;;;;;;;;;5070874;28;20356;-70
2022/04/06 05:26:41;;;;;;;5.72;2.53;;;;;;;;;;5054037;28;20140;-70
2022/04/06 05:29:10;;;;;;;3.97;1.75;;;;;;;;;;5067684;28;20110;-70
2022/04/06 05:31:38;;;;;;;5.13;2.42;;;;;;;;;;5067040;28;20106;-70
2022/04/06 05:34:07;;;;;;;7.85;2.90;;;;;;;;;;5064597;28;20068;-70
2022/04/06 05:36:35;;;;;;;10.45;3.63;;;;;;;;;;5056115;28;20103;-70
2022/04/06 05:39:07;;;;;;;8.45;3.08;;;;;;;;;;5072779;28;20075;-70
2022/04/06 05:41:37;;;;;;;4.65;2.35;;;;;;;;;;5086771;28;20044;-70
2022/04/06 05:44:06;;;;;;;5.80;2.63;;;;;;;;;;5087983;28;20044;-70
2022/04/06 05:46:34;;;;;;;6.28;2.63;;;;;;;;;;5088527;28;20068;-70
2022/04/06 05:49:03;;;;;;;5.10;2.42;;;;;;;;;;5091211;28;20040;-70
2022/04/06 05:51:32;;;;;;;4.07;2.78;;;;;;;;;;5083377;28;20139;-70
2022/04/06 05:54:00;;;;;;;3.28;2.25;;;;;;;;;;5090303;28;20064;-70
2022/04/06 05:56:29;;;;;;;5.25;2.25;;;;;;;;;;5092469;28;20491;-69
2022/04/06 05:58:58;;;;;;;6.03;2.47;;;;;;;;;;5090857;28;20047;-70
2022/04/06 06:01:27;;;;;;;6.20;2.42;;;;;;;;;;5091456;28;20056;-70
2022/04/06 06:03:56;;;;;;;4.20;2.30;;;;;;;;;;5086666;28;20496;-70
2022/04/06 06:06:24;;;;;;;4.13;2.30;;;;;;;;;;5081646;28;20510;-70
2022/04/06 06:08:52;;;;;;;4.20;2.28;;;;;;;;;;5086400;28;20098;-70
2022/04/06 06:11:21;;;;;;;6.43;2.83;;;;;;;;;;5087796;28;20518;-70
2022/04/06 06:13:49;;;;;;;7.18;3.40;;;;;;;;;;5082844;28;20136;-70
2022/04/06 06:16:19;;;;;;;5.05;2.38;;;;;;;;;;5090238;28;20107;-70
2022/04/06 06:18:47;;;;;;;8.45;2.60;;;;;;;;;;5091992;28;20048;-70
2022/04/06 06:21:16;;;;;;;6.18;3.10;;;;;;;;;;5091901;28;20518;-70
2022/04/06 06:23:44;;;;;;;7.32;2.85;;;;;;;;;;5083913;28;20045;-70
2022/04/06 06:26:13;;;;;;;7.65;3.20;;;;;;;;;;5081502;28;20084;-70
2022/04/06 06:28:41;;;;;;;4.47;2.75;;;;;;;;;;5080056;28;20130;-69
2022/04/06 06:31:10;;;;;;;5.88;3.05;;;;;;;;;;5088494;28;20044;-70
2022/04/06 06:33:40;;;;;;;5.13;2.67;;;;;;;;;;5089332;28;20079;-70
2022/04/06 06:36:08;;;;;;;7.15;3.15;;;;;;;;;;5089634;28;20409;-70
2022/04/06 06:38:36;;;;;;;8.80;3.38;;;;;;;;;;5091381;28;20048;-70
2022/04/06 06:41:08;;;;;;;10.68;2.70;;;;;;;;;;5088740;28;20091;-70
2022/04/06 06:43:36;;;;;;;4.95;2.40;;;;;;;;;;5087642;28;20488;-70
2022/04/06 06:46:08;;;;;;;6.35;2.85;;;;;;;;;;5086509;28;20094;-70
2022/04/06 06:48:37;;;;;;;8.63;2.70;;;;;;;;;;5088663;28;20044;-70
2022/04/06 06:51:10;;;;;;;5.28;2.85;;;;;;;;;;5087902;28;20400;-70
2022/04/06 06:53:38;;;;;;;4.15;2.30;;;;;;;;;;5089548;28;20090;-70
2022/04/06 06:56:07;;;;;;;7.22;2.97;;;;;;;;;;5089170;28;20040;-70
2022/04/06 06:58:35;;;;;;;3.65;2.15;;;;;;;;;;5090905;28;20039;-70
2022/04/06 07:01:07;;;;;;;4.93;2.45;;;;;;;;;;5091744;28;20048;-70
2022/04/06 07:03:35;;;;;;;5.40;2.53;;;;;;;;;;5094260;28;20437;-70
2022/04/06 07:06:07;;;;;;;7.20;3.05;;;;;;;;;;5090725;28;20052;-70
2022/04/06 07:08:37;;;;;;;3.80;2.15;;;;;;;;;;5091327;28;20043;-70
2022/04/06 07:11:09;;;;;;;5.40;2.78;;;;;;;;;;5092115;28;20076;-70
2022/04/06 07:13:37;;;;;;;5.80;2.63;;;;;;;;;;5095856;28;20108;-70
2022/04/06 07:16:11;;;;;;;6.43;2.83;;;;;;;;;;5089500;28;20036;-71
2022/04/06 07:18:39;;;;;;;4.00;2.45;;;;;;;;;;5092127;28;20044;-70
2022/04/06 07:21:08;;;;;;;5.30;2.90;;;;;;;;;;5094163;28;20052;-70
2022/04/06 07:23:40;;;;;;;4.82;2.63;;;;;;;;;;5096952;28;20058;-70
2022/04/06 07:26:09;;;;;;;5.85;2.92;;;;;;;;;;5080680;28;20075;-70
2022/04/06 07:28:37;;;;;;;5.05;2.63;;;;;;;;;;5085329;28;20127;-70
2022/04/06 07:31:09;;;;;;;5.95;3.00;;;;;;;;;;5090461;28;20036;-70
2022/04/06 07:33:38;;;;;;;6.40;2.92;;;;;;;;;;5091827;28;20505;-70
2022/04/06 07:36:09;;;;;;;4.72;2.50;;;;;;;;;;5089296;28;20040;-70
2022/04/06 07:38:39;;;;;;;8.32;3.10;;;;;;;;;;5090349;28;20040;-70
2022/04/06 07:41:08;;;;;;;6.95;2.72;;;;;;;;;;5091177;28;20060;-71
2022/04/06 07:43:36;;;;;;;6.28;3.03;;;;;;;;;;5094675;28;20118;-70
2022/04/06 07:46:08;;;;;;;4.85;2.55;;;;;;;;;;5089544;28;20226;-70
2022/04/06 07:48:39;;;;;;;4.38;2.67;;;;;;;;;;5090315;28;20059;-70
2022/04/06 07:51:08;;;;;;;6.95;3.33;;;;;;;;;;5089557;28;20416;-70
2022/04/06 07:53:38;;;;;;;7.88;3.05;;;;;;;;;;5089985;28;20055;-70
2022/04/06 07:56:07;;;;;;;5.20;2.95;;;;;;;;;;5091377;28;20430;-70
2022/04/06 07:58:35;;;;;;;6.43;2.95;;;;;;;;;;5084759;28;20040;-70
2022/04/06 08:01:08;;;;;;;5.47;2.50;;;;;;;;;;5090135;28;20063;-71
2022/04/06 08:03:37;;;;;;;5.60;2.83;;;;;;;;;;5083689;28;20134;-70
2022/04/06 08:06:08;;;;;;;8.57;2.97;;;;;;;;;;5085477;28;20067;-70
2022/04/06 08:08:38;;;;;;;6.13;3.08;;;;;;;;;;5087488;28;20050;-70
2022/04/06 08:11:08;;;;;;;5.75;2.65;;;;;;;;;;5091642;28;20056;-70
2022/04/06 08:13:37;;;;;;;3.97;2.58;;;;;;;;;;5088428;28;20179;-71
2022/04/06 08:16:09;;;;;;;4.30;2.60;;;;;;;;;;5086284;28;20048;-71
2022/04/06 08:18:37;;;;;;;3.60;2.28;;;;;;;;;;5085414;28;20126;-71
2022/04/06 08:21:09;;;;;;;5.30;2.53;;;;;;;;;;5089765;28;20047;-70
2022/04/06 08:23:39;;;;;;;4.35;2.70;;;;;;;;;;5087149;28;20048;-70
2022/04/06 08:26:08;;;;;;;5.70;2.80;;;;;;;;;;5085079;28;20079;-71
2022/04/06 08:28:36;;;;;;;5.05;2.58;;;;;;;;;;5088921;28;20518;-71
2022/04/06 08:31:09;;;;;;;5.30;2.80;;;;;;;;;;5088341;28;20051;-71
2022/04/06 08:33:39;;;;;;;6.88;2.60;;;;;;;;;;5087840;28;20081;-71
2022/04/06 08:36:09;;;;;;;7.28;2.60;;;;;;;;;;5079479;28;20650;-70
2022/04/06 08:38:39;;;;;;;4.85;2.97;;;;;;;;;;5089537;28;20044;-70
2022/04/06 08:41:08;;;;;;;6.15;2.40;;;;;;;;;;5086157;28;20056;-70
2022/04/06 08:43:37;;;;;;;4.57;3.00;;;;;;;;;;5090076;28;20040;-71
2022/04/06 08:46:09;;;;;;;8.40;3.08;;;;;;;;;;5089265;28;20051;-71
2022/04/06 08:48:39;;;;;;;5.95;3.05;;;;;;;;;;5086214;28;20079;-71
2022/04/06 08:51:08;;;;;;;6.57;3.00;;;;;;;;;;5089144;28;20384;-70
2022/04/06 08:53:42;;;;;;;4.40;2.42;;;;;;;;;;5087719;28;20052;-70
2022/04/06 08:56:12;;;;;;;4.97;2.40;;;;;;;;;;5087049;28;20040;-71
2022/04/06 08:58:40;;;;;;;4.57;2.78;;;;;;;;;;5085867;28;20491;-70
2022/04/06 09:01:09;;;;;;;3.83;2.65;;;;;;;;;;5087201;28;20044;-71
2022/04/06 09:03:38;;;;;;;2.88;2.40;;;;;;;;;;5089380;28;20048;-70
2022/04/06 09:06:07;;;;;;;4.78;2.40;;;;;;;;;;5087656;28;20043;-71
2022/04/06 09:08:39;;;;;;;4.95;2.75;;;;;;;;;;5083911;28;20540;-70
2022/04/06 09:11:11;;;;;;;3.72;2.47;;;;;;;;;;5087152;28;20048;-71
2022/04/06 09:13:41;;;;;;;4.13;2.50;;;;;;;;;;5083543;28;20041;-71
2022/04/06 09:16:10;;;;;;;4.72;2.72;;;;;;;;;;5075343;28;20048;-71
2022/04/06 09:18:43;;;;;;;5.93;2.63;;;;;;;;;;5085534;28;20086;-71
2022/04/06 09:21:12;;;;;;;4.68;2.65;;;;;;;;;;5089148;28;20079;-71
2022/04/06 09:23:41;;;;;;;3.75;2.40;;;;;;;;;;5082149;28;20475;-70
2022/04/06 09:26:12;;;;;;;4.32;2.63;;;;;;;;;;5081545;28;20058;-70
2022/04/06 09:28:42;;;;;;;3.47;2.40;;;;;;;;;;5086014;28;20040;-71
2022/04/06 09:31:14;;;;;;;6.07;2.08;;;;;;;;;;5081834;28;20084;-71
2022/04/06 09:33:44;;;;;;;3.83;2.45;;;;;;;;;;5079638;28;20044;-70
2022/04/06 09:36:22;;;;;;;4.50;3.00;;;;;;;;;;5080022;28;20097;-71
2022/04/06 09:38:51;;;;;;;4.95;2.60;;;;;;;;;;5087197;28;20050;-71
2022/04/06 09:41:21;;;;;;;4.40;2.47;;;;;;;;;;5081073;28;20055;-71
2022/04/06 09:43:52;;;;;;;4.03;2.42;;;;;;;;;;5088871;28;20399;-71
2022/04/06 09:49:09;;;;;;;6.50;2.67;;;;;;;;;;5084614;28;20060;-71
2022/04/06 09:51:38;;;;;;;3.97;2.85;;;;;;;;;;5090822;28;20048;-70
2022/04/06 09:54:08;;;;;;;4.85;2.65;;;;;;;;;;5093682;28;20632;-71
2022/04/06 09:56:38;;;;;;;4.80;2.88;;;;;;;;;;5091921;28;20392;-71
2022/04/06 09:59:09;;;;;;;6.28;2.70;;;;;;;;;;5092352;28;20154;-71
2022/04/06 10:01:38;;;;;;;7.03;2.83;;;;;;;;;;5088914;28;20514;-72
2022/04/06 10:04:08;;;;;;;3.90;2.67;;;;;;;;;;5085909;28;20047;-72
2022/04/06 10:06:36;;;;;;;6.20;2.83;;;;;;;;;;5087725;28;20075;-72
2022/04/06 10:09:06;;;;;;;4.45;2.75;;;;;;;;;;5091843;28;20036;-72
2022/04/06 10:11:35;;;;;;;4.93;3.00;;;;;;;;;;5089528;28;20093;-72
2022/04/06 10:14:06;;;;;;;5.07;2.75;;;;;;;;;;5089479;28;20044;-72
2022/04/06 10:16:36;;;;;;;4.15;2.63;;;;;;;;;;5088498;28;20055;-72
2022/04/06 10:19:05;;;;;;;5.43;2.53;;;;;;;;;;5088682;28;20380;-72
2022/04/06 10:21:38;;;;;;;3.65;2.55;;;;;;;;;;5089203;28;20134;-72
2022/04/06 10:24:16;;;;;;;3.88;2.15;;;;;;;;;;5090443;28;20040;-72
2022/04/06 10:26:52;;;;;;;3.60;2.25;;;;;;;;;;5094830;28;20036;-73
2022/04/06 10:29:21;;;;;;;3.67;2.40;;;;;;;;;;5080172;28;20083;-72
2022/04/06 10:31:50;;;;;;;3.55;2.13;;;;;;;;;;5089140;28;20131;-72
2022/04/06 10:34:20;;;;;;;2.67;1.77;;;;;;;;;;5082771;28;20048;-72
2022/04/06 10:37:04;;;;;;;2.70;1.73;;;;;;;;;;5080271;28;20040;-72
2022/04/06 10:39:33;;;;;;;2.83;1.97;;;;;;;;;;5082726;28;20535;-72
2022/04/06 10:42:15;;;;;;;3.40;2.63;;;;;;;;;;5086725;28;20397;-72
2022/04/06 10:44:45;;;;;;;5.13;2.40;;;;;;;;;;5090081;28;20048;-72
2022/04/06 10:47:14;;;;;;;5.18;2.40;;;;;;;;;;5091570;28;20052;-70
2022/04/06 10:49:42;;;;;;;2.90;2.15;;;;;;;;;;5087850;28;20067;-70
2022/04/06 10:52:22;;;;;;;3.47;2.55;;;;;;;;;;5089269;28;20488;-72
2022/04/06 10:54:51;;;;;;;3.17;2.20;;;;;;;;;;5085856;28;20063;-72
2022/04/06 10:57:20;;;;;;;4.80;1.98;;;;;;;;;;5085539;28;20075;-72
2022/04/06 11:00:07;;;;;;;2.35;1.85;;;;;;;;;;5091727;28;20040;-72
2022/04/06 11:02:46;;;;;;;3.63;2.13;;;;;;;;;;5083327;28;20044;-72
2022/04/06 11:05:30;;;;;;;3.08;2.08;;;;;;;;;;5089075;28;20060;-72
2022/04/06 11:10:45;;;;;;;2.15;1.70;;;;;;;;;;5101633;28;20059;-72
2022/04/06 11:13:17;;;;;;;3.10;2.08;;;;;;;;;;5089323;28;20055;-72
2022/04/06 11:15:52;;;;;;;5.28;1.70;;;;;;;;;;5085771;28;20063;-72
2022/04/06 11:18:39;;;;;;;4.22;2.00;;;;;;;;;;5082817;28;20048;-70
2022/04/06 11:21:09;;;;;;;3.35;1.60;;;;;;;;;;5091396;28;20052;-70
2022/04/06 11:23:37;;;;;;;3.13;1.30;;;;;;;;;;5085439;28;20131;-70
2022/04/06 11:26:06;;;;;;;1.75;1.40;;;;;;;;;;5086158;28;20156;-70
2022/04/06 11:28:35;;;;;;;3.35;1.30;;;;;;;;;;5087168;28;20051;-71
2022/04/06 11:31:07;;;;;;;1.83;1.10;;;;;;;;;;5085816;28;20052;-72
2022/04/06 11:33:42;;;;;;;2.60;1.58;;;;;;;;;;5086095;28;20052;-72
2022/04/06 11:36:16;;;;;;;3.88;1.88;;;;;;;;;;5085591;28;20044;-72
2022/04/06 11:38:49;;;;;;;3.37;1.63;;;;;;;;;;5091107;28;20048;-70
2022/04/06 11:41:19;;;;;;;3.63;1.70;;;;;;;;;;5088022;28;20646;-71
2022/04/06 11:43:50;;;;;;;1.60;1.50;;;;;;;;;;5087521;28;20458;-71
2022/04/06 11:46:21;;;;;;;2.00;1.55;;;;;;;;;;5086303;28;20048;-72
2022/04/06 11:48:49;;;;;;;2.75;1.17;;;;;;;;;;5082547;28;20113;-72
2022/04/06 11:51:19;;;;;;;5.60;1.20;;;;;;;;;;5088018;28;20052;-71
2022/04/06 11:53:48;;;;;;;2.72;1.35;;;;;;;;;;5083995;28;20040;-71
2022/04/06 11:56:22;;;;;;;2.40;1.30;;;;;;;;;;5084452;28;20040;-72
2022/04/06 11:58:55;;;;;;;2.30;1.40;;;;;;;;;;5087224;28;20044;-71
2022/04/06 12:01:28;;;;;;;1.42;0.93;;;;;;;;;;5083086;28;20040;-71
2022/04/06 12:03:59;;;;;;;2.08;0.88;;;;;;;;;;5087187;28;20062;-71
2022/04/06 12:06:36;;;;;;;2.55;0.75;;;;;;;;;;5077575;28;20068;-73
2022/04/06 12:09:06;;;;;;;2.22;1.00;;;;;;;;;;5089537;28;20048;-72
2022/04/06 12:11:35;;;;;;;2.25;0.70;;;;;;;;;;5087174;28;20451;-72
2022/04/06 12:14:04;;;;;;;3.78;1.00;;;;;;;;;;5085839;28;20052;-71
2022/04/06 12:16:33;;;;;;;2.25;1.00;;;;;;;;;;5086545;28;20080;-72
2022/04/06 12:19:03;;;;;;;2.15;1.40;;;;;;;;;;5087536;28;20052;-71
2022/04/06 12:21:40;;;;;;;1.63;1.20;;;;;;;;;;5087677;28;20048;-71
2022/04/06 12:24:11;;;;;;;2.25;1.60;;;;;;;;;;5076956;28;20103;-72
2022/04/06 12:26:40;;;;;;;1.27;1.00;;;;;;;;;;5090568;28;20036;-72
2022/04/06 12:29:14;;;;;;;2.75;1.38;;;;;;;;;;5088177;28;20110;-72
2022/04/06 12:31:43;;;;;;;1.80;1.38;;;;;;;;;;5088355;28;20059;-72
2022/04/06 12:34:27;;;;;;;1.67;1.20;;;;;;;;;;5088438;28;20044;-71
2022/04/06 12:36:58;;;;;;;1.52;1.30;;;;;;;;;;5087842;28;20130;-72
2022/04/06 12:39:26;;;;;;;3.03;1.45;;;;;;;;;;5089507;28;20051;-71
2022/04/06 12:42:01;;;;;;;2.10;1.35;;;;;;;;;;5070282;28;20114;-71
2022/04/06 12:44:30;;;;;;;2.92;1.40;;;;;;;;;;5069157;28;20040;-71
2022/04/06 12:46:59;;;;;;;2.75;1.60;;;;;;;;;;5068545;28;20048;-71
2022/04/06 12:49:29;;;;;;;1.88;1.60;;;;;;;;;;5064191;28;20048;-71
2022/04/06 12:52:10;;;;;;;2.28;1.50;;;;;;;;;;5080317;28;20559;-71
2022/04/06 12:54:39;;;;;;;3.88;1.30;;;;;;;;;;5060813;28;21439;-71
2022/04/06 12:57:09;;;;;;;2.53;1.40;;;;;;;;;;5075379;28;20473;-72
2022/04/06 12:59:39;;;;;;;1.55;1.30;;;;;;;;;;5068345;28;20044;-72
2022/04/06 13:02:18;;;;;;;2.55;1.77;;;;;;;;;;5065433;28;20059;-72
2022/04/06 13:04:47;;;;;;;3.35;1.40;;;;;;;;;;5060589;28;20486;-72
2022/04/06 13:07:17;;;;;;;2.13;1.30;;;;;;;;;;5066210;28;20043;-72
2022/04/06 13:10:05;;;;;;;1.95;1.10;;;;;;;;;;5069074;28;20496;-72
2022/04/06 13:12:34;;;;;;;2.30;1.30;;;;;;;;;;5068107;28;20060;-72
2022/04/06 13:15:03;;;;;;;1.88;1.00;;;;;;;;;;5068630;28;20044;-72
2022/04/06 13:17:32;;;;;;;1.90;0.98;;;;;;;;;;5065912;28;20048;-72
2022/04/06 13:20:01;;;;;;;2.25;1.50;;;;;;;;;;5065759;28;20053;-72
2022/04/06 13:22:31;;;;;;;1.75;1.42;;;;;;;;;;5063683;28;20072;-73
2022/04/06 13:25:00;;;;;;;1.42;1.00;;;;;;;;;;5065772;28;20102;-72
2022/04/06 13:27:29;;;;;;;1.30;1.00;;;;;;;;;;5069854;28;20049;-72
2022/04/06 13:30:06;;;;;;;1.95;0.90;;;;;;;;;;5069845;28;20048;-72
2022/04/06 13:32:35;;;;;;;1.40;1.00;;;;;;;;;;5071123;28;20052;-73
2022/04/06 13:35:04;;;;;;;1.58;0.80;;;;;;;;;;5071304;28;20093;-72
2022/04/06 13:37:35;;;;;;;1.05;0.75;;;;;;;;;;5072479;28;20147;-73
2022/04/06 13:40:04;;;;;;;1.20;0.75;;;;;;;;;;5068845;28;20052;-72
2022/04/06 13:42:33;;;;;;;2.40;1.05;;;;;;;;;;5052586;28;20073;-71
2022/04/06 13:45:04;;;;;;;0.95;0.80;;;;;;;;;;5060656;28;20041;-72
2022/04/06 13:47:33;;;;;;;1.65;0.85;;;;;;;;;;5059182;28;20472;-72
2022/04/06 13:50:02;;;;;;;1.33;1.02;;;;;;;;;;5050949;28;20500;-72
2022/04/06 13:52:31;;;;;;;1.48;1.10;;;;;;;;;;5041964;28;20052;-72
2022/04/06 13:55:01;;;;;;;2.35;1.45;;;;;;;;;;5047939;28;20052;-72
2022/04/06 13:57:30;;;;;;;2.28;1.30;;;;;;;;;;5067909;28;20048;-72
2022/04/06 14:00:00;;;;;;;2.40;1.20;;;;;;;;;;5057443;28;20045;-72
2022/04/06 14:02:30;;;;;;;2.40;1.52;;;;;;;;;;5073008;28;20491;-72
2022/04/06 14:05:01;;;;;;;2.33;1.27;;;;;;;;;;5062912;28;20127;-72
2022/04/06 14:07:30;;;;;;;1.95;1.30;;;;;;;;;;5069662;28;20078;-72
2022/04/06 14:09:59;;;;;;;1.02;0.80;;;;;;;;;;5069533;28;20048;-72
2022/04/06 14:12:29;;;;;;;1.77;1.00;;;;;;;;;;5062195;28;20063;-71
2022/04/06 14:14:58;;;;;;;2.97;1.27;;;;;;;;;;5073063;28;20489;-72
2022/04/06 14:17:27;;;;;;;1.25;0.90;;;;;;;;;;5063146;28;20052;-72
2022/04/06 14:19:56;;;;;;;1.35;0.90;;;;;;;;;;5060429;28;20045;-72
2022/04/06 14:22:25;;;;;;;2.55;1.00;;;;;;;;;;5061509;28;20096;-72
2022/04/06 14:27:42;;;;;;;2.60;0.80;;;;;;;;;;5054424;28;20052;-72
2022/04/06 14:30:12;;;;;;;2.03;0.77;;;;;;;;;;5067261;28;20049;-72
2022/04/06 14:32:42;;;;;;;1.45;0.90;;;;;;;;;;5069993;28;20053;-72
2022/04/06 14:35:12;;;;;;;3.15;0.77;;;;;;;;;;5069551;28;20055;-72
2022/04/06 14:37:42;;;;;;;0.95;0.73;;;;;;;;;;5069734;28;20480;-72
2022/04/06 14:40:13;;;;;;;1.52;1.02;;;;;;;;;;5074259;28;20063;-72
2022/04/06 14:42:43;;;;;;;2.25;0.95;;;;;;;;;;5091662;28;20294;-72
2022/04/06 14:45:13;;;;;;;1.65;1.00;;;;;;;;;;5083966;28;20052;-72
2022/04/06 14:47:49;;;;;;;0.80;0.70;;;;;;;;;;5085518;28;20050;-72
2022/04/06 14:50:19;;;;;;;0.68;0.60;;;;;;;;;;5090095;28;20047;-73
2022/04/06 14:52:50;;;;;;;2.33;0.90;;;;;;;;;;5100030;28;20048;-73
2022/04/06 14:55:20;;;;;;;5.28;1.08;;;;;;;;;;5092042;28;20047;-73
2022/04/06 14:57:51;;;;;;;2.03;0.88;;;;;;;;;;5087137;28;20466;-73
2022/04/06 15:00:21;;;;;;;2.17;0.95;;;;;;;;;;5089740;28;20055;-73
2022/04/06 15:02:50;;;;;;;1.92;1.13;;;;;;;;;;5093063;28;20043;-73
2022/04/06 15:05:19;;;;;;;2.25;0.75;;;;;;;;;;5090179;28;20411;-73
2022/04/06 15:07:48;;;;;;;1.67;0.95;;;;;;;;;;5080421;28;20048;-73
2022/04/06 15:10:17;;;;;;;1.55;1.08;;;;;;;;;;5085180;28;20063;-72